sensor_id;sensor_type;location;lat;lon;timestamp;P1;durP1;ratioP1;P2;durP2;ratioP2
77016;SDS011;65949;53.132;17.930;2023-11-19T00:02:27;31.20;;;12.60;;
77016;SDS011;65949;53.132;17.930;2023-11-19T00:04:53;29.60;;;12.80;;
77016;SDS011;65949;53.132;17.930;2023-11-19T00:07:20;30.10;;;11.70;;
77016;SDS011;65949;53.132;17.930;2023-11-19T00:09:47;31.90;;;12.10;;
77016;SDS011;65949;53.132;17.930;2023-11-19T00:12:13;26.40;;;11.70;;
77016;SDS011;65949;53.132;17.930;2023-11-19T00:14:40;29.90;;;12.60;;
77016;SDS011;65949;53.132;17.930;2023-11-19T00:17:07;36.50;;;15.70;;
77016;SDS011;65949;53.132;17.930;2023-11-19T00:19:33;45.30;;;20.90;;
77016;SDS011;65949;53.132;17.930;2023-11-19T00:22:00;67.80;;;32.60;;
77016;SDS011;65949;53.132;17.930;2023-11-19T00:24:29;85.30;;;37.10;;
77016;SDS011;65949;53.132;17.930;2023-11-19T00:26:56;57.20;;;24.90;;
77016;SDS011;65949;53.132;17.930;2023-11-19T00:29:23;79.00;;;32.80;;
77016;SDS011;65949;53.132;17.930;2023-11-19T00:31:50;122.80;;;52.20;;
77016;SDS011;65949;53.132;17.930;2023-11-19T00:34:16;91.30;;;39.70;;
77016;SDS011;65949;53.132;17.930;2023-11-19T00:36:47;74.30;;;33.90;;
77016;SDS011;65949;53.132;17.930;2023-11-19T00:39:14;61.50;;;27.40;;
77016;SDS011;65949;53.132;17.930;2023-11-19T00:41:42;52.60;;;23.00;;
77016;SDS011;65949;53.132;17.930;2023-11-19T00:44:08;46.40;;;20.10;;
77016;SDS011;65949;53.132;17.930;2023-11-19T00:46:35;40.10;;;17.10;;
77016;SDS011;65949;53.132;17.930;2023-11-19T00:49:03;45.70;;;16.80;;
77016;SDS011;65949;53.132;17.930;2023-11-19T00:51:29;39.60;;;16.90;;
77016;SDS011;65949;53.132;17.930;2023-11-19T00:53:58;35.80;;;15.00;;
77016;SDS011;65949;53.132;17.930;2023-11-19T00:56:25;36.80;;;15.20;;
77016;SDS011;65949;53.132;17.930;2023-11-19T00:58:52;35.10;;;14.40;;
77016;SDS011;65949;53.132;17.930;2023-11-19T01:01:18;42.20;;;14.90;;
77016;SDS011;65949;53.132;17.930;2023-11-19T01:03:45;50.20;;;17.50;;
77016;SDS011;65949;53.132;17.930;2023-11-19T01:06:12;45.50;;;17.30;;
77016;SDS011;65949;53.132;17.930;2023-11-19T01:08:39;41.10;;;17.00;;
77016;SDS011;65949;53.132;17.930;2023-11-19T01:11:05;38.50;;;16.00;;
77016;SDS011;65949;53.132;17.930;2023-11-19T01:13:32;41.50;;;15.20;;
77016;SDS011;65949;53.132;17.930;2023-11-19T01:15:59;39.10;;;13.00;;
77016;SDS011;65949;53.132;17.930;2023-11-19T01:18:28;38.90;;;13.70;;
77016;SDS011;65949;53.132;17.930;2023-11-19T01:20:55;40.40;;;15.00;;
77016;SDS011;65949;53.132;17.930;2023-11-19T01:23:21;39.70;;;15.80;;
77016;SDS011;65949;53.132;17.930;2023-11-19T01:25:48;42.60;;;17.40;;
77016;SDS011;65949;53.132;17.930;2023-11-19T01:28:14;46.10;;;16.60;;
77016;SDS011;65949;53.132;17.930;2023-11-19T01:30:41;46.90;;;17.60;;
77016;SDS011;65949;53.132;17.930;2023-11-19T01:33:07;43.40;;;16.20;;
77016;SDS011;65949;53.132;17.930;2023-11-19T01:35:34;55.60;;;17.70;;
77016;SDS011;65949;53.132;17.930;2023-11-19T01:38:01;89.60;;;30.70;;
77016;SDS011;65949;53.132;17.930;2023-11-19T01:40:27;58.30;;;20.20;;
77016;SDS011;65949;53.132;17.930;2023-11-19T01:42:54;73.00;;;24.60;;
77016;SDS011;65949;53.132;17.930;2023-11-19T01:45:22;67.50;;;22.40;;
77016;SDS011;65949;53.132;17.930;2023-11-19T01:48:02;58.20;;;22.10;;
77016;SDS011;65949;53.132;17.930;2023-11-19T01:50:30;60.50;;;20.30;;
77016;SDS011;65949;53.132;17.930;2023-11-19T01:52:59;52.60;;;18.70;;
77016;SDS011;65949;53.132;17.930;2023-11-19T01:55:26;44.10;;;17.40;;
77016;SDS011;65949;53.132;17.930;2023-11-19T01:57:58;40.80;;;16.40;;
77016;SDS011;65949;53.132;17.930;2023-11-19T02:00:27;39.50;;;15.20;;
77016;SDS011;65949;53.132;17.930;2023-11-19T02:02:54;43.80;;;16.50;;
77016;SDS011;65949;53.132;17.930;2023-11-19T02:05:21;45.60;;;17.90;;
77016;SDS011;65949;53.132;17.930;2023-11-19T02:07:49;54.70;;;20.70;;
77016;SDS011;65949;53.132;17.930;2023-11-19T02:10:17;41.40;;;16.60;;
77016;SDS011;65949;53.132;17.930;2023-11-19T02:12:45;41.80;;;16.40;;
77016;SDS011;65949;53.132;17.930;2023-11-19T02:15:12;44.60;;;16.40;;
77016;SDS011;65949;53.132;17.930;2023-11-19T02:17:38;43.10;;;17.30;;
77016;SDS011;65949;53.132;17.930;2023-11-19T02:20:06;45.30;;;20.10;;
77016;SDS011;65949;53.132;17.930;2023-11-19T02:22:37;44.60;;;18.70;;
77016;SDS011;65949;53.132;17.930;2023-11-19T02:25:06;40.80;;;18.00;;
77016;SDS011;65949;53.132;17.930;2023-11-19T02:30:11;39.90;;;16.60;;
77016;SDS011;65949;53.132;17.930;2023-11-19T02:32:41;44.50;;;16.90;;
77016;SDS011;65949;53.132;17.930;2023-11-19T02:35:08;41.50;;;16.30;;
77016;SDS011;65949;53.132;17.930;2023-11-19T02:37:34;38.50;;;16.20;;
77016;SDS011;65949;53.132;17.930;2023-11-19T02:40:01;39.60;;;16.30;;
77016;SDS011;65949;53.132;17.930;2023-11-19T02:42:29;41.50;;;17.60;;
77016;SDS011;65949;53.132;17.930;2023-11-19T02:44:56;41.60;;;17.60;;
77016;SDS011;65949;53.132;17.930;2023-11-19T02:47:23;39.40;;;17.60;;
77016;SDS011;65949;53.132;17.930;2023-11-19T02:49:50;41.90;;;17.60;;
77016;SDS011;65949;53.132;17.930;2023-11-19T02:52:17;42.10;;;16.60;;
77016;SDS011;65949;53.132;17.930;2023-11-19T02:54:45;36.80;;;15.20;;
77016;SDS011;65949;53.132;17.930;2023-11-19T02:57:11;31.90;;;12.40;;
77016;SDS011;65949;53.132;17.930;2023-11-19T02:59:39;41.70;;;16.20;;
77016;SDS011;65949;53.132;17.930;2023-11-19T03:02:08;40.90;;;16.30;;
77016;SDS011;65949;53.132;17.930;2023-11-19T03:04:38;33.00;;;13.40;;
77016;SDS011;65949;53.132;17.930;2023-11-19T03:07:09;34.80;;;14.10;;
77016;SDS011;65949;53.132;17.930;2023-11-19T03:09:35;43.50;;;16.80;;
77016;SDS011;65949;53.132;17.930;2023-11-19T03:12:02;37.10;;;15.90;;
77016;SDS011;65949;53.132;17.930;2023-11-19T03:14:30;37.20;;;15.10;;
77016;SDS011;65949;53.132;17.930;2023-11-19T03:17:00;39.70;;;16.00;;
77016;SDS011;65949;53.132;17.930;2023-11-19T03:19:27;34.80;;;14.40;;
77016;SDS011;65949;53.132;17.930;2023-11-19T03:21:54;36.50;;;14.80;;
77016;SDS011;65949;53.132;17.930;2023-11-19T03:24:21;37.00;;;14.30;;
77016;SDS011;65949;53.132;17.930;2023-11-19T03:26:48;34.80;;;15.10;;
77016;SDS011;65949;53.132;17.930;2023-11-19T03:29:16;41.30;;;16.70;;
77016;SDS011;65949;53.132;17.930;2023-11-19T03:31:43;31.70;;;12.90;;
77016;SDS011;65949;53.132;17.930;2023-11-19T03:34:11;38.40;;;15.20;;
77016;SDS011;65949;53.132;17.930;2023-11-19T03:36:37;37.50;;;15.80;;
77016;SDS011;65949;53.132;17.930;2023-11-19T03:39:04;37.40;;;16.30;;
77016;SDS011;65949;53.132;17.930;2023-11-19T03:41:30;39.90;;;15.20;;
77016;SDS011;65949;53.132;17.930;2023-11-19T03:43:57;39.80;;;15.70;;
77016;SDS011;65949;53.132;17.930;2023-11-19T03:46:24;34.10;;;14.60;;
77016;SDS011;65949;53.132;17.930;2023-11-19T03:48:50;32.80;;;13.70;;
77016;SDS011;65949;53.132;17.930;2023-11-19T03:51:17;37.30;;;14.20;;
77016;SDS011;65949;53.132;17.930;2023-11-19T03:53:44;32.80;;;12.80;;
77016;SDS011;65949;53.132;17.930;2023-11-19T03:56:12;31.00;;;13.10;;
77016;SDS011;65949;53.132;17.930;2023-11-19T03:58:39;36.80;;;13.80;;
77016;SDS011;65949;53.132;17.930;2023-11-19T04:01:06;31.40;;;13.70;;
77016;SDS011;65949;53.132;17.930;2023-11-19T04:03:37;32.10;;;13.20;;
77016;SDS011;65949;53.132;17.930;2023-11-19T04:06:04;30.80;;;12.40;;
77016;SDS011;65949;53.132;17.930;2023-11-19T04:08:31;30.60;;;12.80;;
77016;SDS011;65949;53.132;17.930;2023-11-19T04:10:57;37.10;;;17.10;;
77016;SDS011;65949;53.132;17.930;2023-11-19T04:13:24;34.00;;;15.30;;
77016;SDS011;65949;53.132;17.930;2023-11-19T04:15:51;150.00;;;32.40;;
77016;SDS011;65949;53.132;17.930;2023-11-19T04:18:17;261.80;;;53.70;;
77016;SDS011;65949;53.132;17.930;2023-11-19T04:20:44;309.30;;;60.30;;
77016;SDS011;65949;53.132;17.930;2023-11-19T04:23:11;238.80;;;50.50;;
77016;SDS011;65949;53.132;17.930;2023-11-19T04:25:37;187.70;;;42.70;;
77016;SDS011;65949;53.132;17.930;2023-11-19T04:28:04;92.20;;;26.80;;
77016;SDS011;65949;53.132;17.930;2023-11-19T04:30:31;91.00;;;28.60;;
77016;SDS011;65949;53.132;17.930;2023-11-19T04:33:01;133.60;;;38.50;;
77016;SDS011;65949;53.132;17.930;2023-11-19T04:35:28;114.10;;;35.60;;
77016;SDS011;65949;53.132;17.930;2023-11-19T04:37:54;37.20;;;13.90;;
77016;SDS011;65949;53.132;17.930;2023-11-19T04:40:23;87.00;;;29.00;;
77016;SDS011;65949;53.132;17.930;2023-11-19T04:42:50;68.30;;;27.30;;
77016;SDS011;65949;53.132;17.930;2023-11-19T04:45:17;49.20;;;20.10;;
77016;SDS011;65949;53.132;17.930;2023-11-19T04:47:43;65.20;;;24.20;;
77016;SDS011;65949;53.132;17.930;2023-11-19T04:50:10;45.80;;;19.00;;
77016;SDS011;65949;53.132;17.930;2023-11-19T04:52:37;35.50;;;16.30;;
77016;SDS011;65949;53.132;17.930;2023-11-19T04:55:12;29.70;;;12.80;;
77016;SDS011;65949;53.132;17.930;2023-11-19T04:57:40;33.30;;;13.80;;
77016;SDS011;65949;53.132;17.930;2023-11-19T05:00:07;34.30;;;15.90;;
77016;SDS011;65949;53.132;17.930;2023-11-19T05:02:34;31.90;;;14.00;;
77016;SDS011;65949;53.132;17.930;2023-11-19T05:05:01;42.30;;;18.30;;
77016;SDS011;65949;53.132;17.930;2023-11-19T05:07:30;34.30;;;16.10;;
77016;SDS011;65949;53.132;17.930;2023-11-19T05:09:57;30.30;;;13.20;;
77016;SDS011;65949;53.132;17.930;2023-11-19T05:12:24;27.30;;;11.70;;
77016;SDS011;65949;53.132;17.930;2023-11-19T05:14:51;24.90;;;10.50;;
77016;SDS011;65949;53.132;17.930;2023-11-19T05:17:18;25.20;;;11.40;;
77016;SDS011;65949;53.132;17.930;2023-11-19T05:19:45;27.20;;;11.00;;
77016;SDS011;65949;53.132;17.930;2023-11-19T05:22:12;28.80;;;12.90;;
77016;SDS011;65949;53.132;17.930;2023-11-19T05:24:39;24.60;;;11.00;;
77016;SDS011;65949;53.132;17.930;2023-11-19T05:27:07;25.50;;;11.30;;
77016;SDS011;65949;53.132;17.930;2023-11-19T05:29:34;28.00;;;11.60;;
77016;SDS011;65949;53.132;17.930;2023-11-19T05:32:00;29.60;;;12.10;;
77016;SDS011;65949;53.132;17.930;2023-11-19T05:34:27;25.60;;;11.70;;
77016;SDS011;65949;53.132;17.930;2023-11-19T05:36:54;28.30;;;11.60;;
77016;SDS011;65949;53.132;17.930;2023-11-19T05:39:20;44.20;;;18.90;;
77016;SDS011;65949;53.132;17.930;2023-11-19T05:41:48;60.70;;;20.70;;
77016;SDS011;65949;53.132;17.930;2023-11-19T05:44:14;91.40;;;27.10;;
77016;SDS011;65949;53.132;17.930;2023-11-19T05:46:41;71.90;;;24.60;;
77016;SDS011;65949;53.132;17.930;2023-11-19T05:49:10;75.80;;;28.20;;
77016;SDS011;65949;53.132;17.930;2023-11-19T05:51:37;66.50;;;25.90;;
77016;SDS011;65949;53.132;17.930;2023-11-19T05:54:08;51.70;;;20.20;;
77016;SDS011;65949;53.132;17.930;2023-11-19T05:56:36;39.60;;;16.00;;
77016;SDS011;65949;53.132;17.930;2023-11-19T05:59:03;35.20;;;13.60;;
77016;SDS011;65949;53.132;17.930;2023-11-19T06:01:34;35.70;;;13.70;;
77016;SDS011;65949;53.132;17.930;2023-11-19T06:04:00;43.20;;;18.70;;
77016;SDS011;65949;53.132;17.930;2023-11-19T06:06:28;31.20;;;14.20;;
77016;SDS011;65949;53.132;17.930;2023-11-19T06:08:55;26.50;;;12.20;;
77016;SDS011;65949;53.132;17.930;2023-11-19T06:11:21;24.50;;;9.50;;
77016;SDS011;65949;53.132;17.930;2023-11-19T06:13:48;25.60;;;10.90;;
77016;SDS011;65949;53.132;17.930;2023-11-19T06:16:17;24.60;;;10.30;;
77016;SDS011;65949;53.132;17.930;2023-11-19T06:18:43;25.60;;;10.60;;
77016;SDS011;65949;53.132;17.930;2023-11-19T06:21:11;21.40;;;9.60;;
77016;SDS011;65949;53.132;17.930;2023-11-19T06:23:38;22.80;;;9.30;;
77016;SDS011;65949;53.132;17.930;2023-11-19T06:26:05;23.80;;;9.70;;
77016;SDS011;65949;53.132;17.930;2023-11-19T06:28:31;28.50;;;11.80;;
77016;SDS011;65949;53.132;17.930;2023-11-19T06:30:58;28.20;;;11.40;;
77016;SDS011;65949;53.132;17.930;2023-11-19T06:33:25;29.30;;;10.90;;
77016;SDS011;65949;53.132;17.930;2023-11-19T06:35:51;44.20;;;14.80;;
77016;SDS011;65949;53.132;17.930;2023-11-19T06:38:18;37.80;;;13.30;;
77016;SDS011;65949;53.132;17.930;2023-11-19T06:40:45;27.00;;;10.40;;
77016;SDS011;65949;53.132;17.930;2023-11-19T06:43:11;20.90;;;8.30;;
77016;SDS011;65949;53.132;17.930;2023-11-19T06:45:38;23.30;;;9.80;;
77016;SDS011;65949;53.132;17.930;2023-11-19T06:48:05;22.50;;;8.90;;
77016;SDS011;65949;53.132;17.930;2023-11-19T06:50:32;18.90;;;8.60;;
77016;SDS011;65949;53.132;17.930;2023-11-19T06:52:58;21.80;;;9.10;;
77016;SDS011;65949;53.132;17.930;2023-11-19T06:55:26;19.40;;;7.40;;
77016;SDS011;65949;53.132;17.930;2023-11-19T06:57:52;22.80;;;8.90;;
77016;SDS011;65949;53.132;17.930;2023-11-19T07:00:19;28.20;;;10.90;;
77016;SDS011;65949;53.132;17.930;2023-11-19T07:02:46;23.00;;;9.50;;
77016;SDS011;65949;53.132;17.930;2023-11-19T07:05:13;20.50;;;8.50;;
77016;SDS011;65949;53.132;17.930;2023-11-19T07:07:39;23.00;;;8.80;;
77016;SDS011;65949;53.132;17.930;2023-11-19T07:10:06;21.80;;;9.00;;
77016;SDS011;65949;53.132;17.930;2023-11-19T07:12:35;23.20;;;8.50;;
77016;SDS011;65949;53.132;17.930;2023-11-19T07:15:02;23.90;;;9.60;;
77016;SDS011;65949;53.132;17.930;2023-11-19T07:17:30;29.60;;;12.00;;
77016;SDS011;65949;53.132;17.930;2023-11-19T07:19:57;32.90;;;13.50;;
77016;SDS011;65949;53.132;17.930;2023-11-19T07:22:26;50.30;;;18.30;;
77016;SDS011;65949;53.132;17.930;2023-11-19T07:24:55;57.70;;;21.40;;
77016;SDS011;65949;53.132;17.930;2023-11-19T07:27:22;44.70;;;17.00;;
77016;SDS011;65949;53.132;17.930;2023-11-19T07:29:50;50.00;;;18.50;;
77016;SDS011;65949;53.132;17.930;2023-11-19T07:32:17;39.80;;;16.00;;
77016;SDS011;65949;53.132;17.930;2023-11-19T07:34:44;26.90;;;10.70;;
77016;SDS011;65949;53.132;17.930;2023-11-19T07:37:11;22.00;;;9.60;;
77016;SDS011;65949;53.132;17.930;2023-11-19T07:39:37;21.00;;;8.40;;
77016;SDS011;65949;53.132;17.930;2023-11-19T07:42:07;20.90;;;8.80;;
77016;SDS011;65949;53.132;17.930;2023-11-19T07:44:33;21.50;;;8.70;;
77016;SDS011;65949;53.132;17.930;2023-11-19T07:47:00;20.90;;;9.10;;
77016;SDS011;65949;53.132;17.930;2023-11-19T07:49:27;20.40;;;7.40;;
77016;SDS011;65949;53.132;17.930;2023-11-19T07:51:54;22.20;;;8.60;;
77016;SDS011;65949;53.132;17.930;2023-11-19T07:54:20;22.70;;;9.20;;
77016;SDS011;65949;53.132;17.930;2023-11-19T07:56:47;22.30;;;9.10;;
77016;SDS011;65949;53.132;17.930;2023-11-19T07:59:16;22.00;;;8.80;;
77016;SDS011;65949;53.132;17.930;2023-11-19T08:01:42;22.70;;;9.80;;
77016;SDS011;65949;53.132;17.930;2023-11-19T08:04:09;22.00;;;9.40;;
77016;SDS011;65949;53.132;17.930;2023-11-19T08:06:36;19.60;;;8.50;;
77016;SDS011;65949;53.132;17.930;2023-11-19T08:09:03;22.30;;;9.30;;
77016;SDS011;65949;53.132;17.930;2023-11-19T08:11:30;25.00;;;11.20;;
77016;SDS011;65949;53.132;17.930;2023-11-19T08:13:56;24.30;;;9.80;;
77016;SDS011;65949;53.132;17.930;2023-11-19T08:16:23;24.20;;;9.20;;
77016;SDS011;65949;53.132;17.930;2023-11-19T08:18:50;23.20;;;10.30;;
77016;SDS011;65949;53.132;17.930;2023-11-19T08:21:16;24.10;;;10.10;;
77016;SDS011;65949;53.132;17.930;2023-11-19T08:23:43;26.60;;;11.20;;
77016;SDS011;65949;53.132;17.930;2023-11-19T08:26:09;23.00;;;9.90;;
77016;SDS011;65949;53.132;17.930;2023-11-19T08:28:37;23.60;;;10.10;;
77016;SDS011;65949;53.132;17.930;2023-11-19T08:31:04;28.30;;;12.00;;
77016;SDS011;65949;53.132;17.930;2023-11-19T08:33:32;31.00;;;12.40;;
77016;SDS011;65949;53.132;17.930;2023-11-19T08:35:58;34.60;;;13.00;;
77016;SDS011;65949;53.132;17.930;2023-11-19T08:38:25;31.10;;;11.50;;
77016;SDS011;65949;53.132;17.930;2023-11-19T08:40:52;38.20;;;14.10;;
77016;SDS011;65949;53.132;17.930;2023-11-19T08:43:18;20.70;;;8.20;;
77016;SDS011;65949;53.132;17.930;2023-11-19T08:45:45;41.90;;;13.00;;
77016;SDS011;65949;53.132;17.930;2023-11-19T08:48:12;40.10;;;13.20;;
77016;SDS011;65949;53.132;17.930;2023-11-19T08:50:38;38.40;;;13.80;;
77016;SDS011;65949;53.132;17.930;2023-11-19T08:53:05;32.90;;;13.60;;
77016;SDS011;65949;53.132;17.930;2023-11-19T08:55:33;28.30;;;12.40;;
77016;SDS011;65949;53.132;17.930;2023-11-19T08:57:59;27.30;;;10.50;;
77016;SDS011;65949;53.132;17.930;2023-11-19T09:00:26;26.20;;;11.60;;
77016;SDS011;65949;53.132;17.930;2023-11-19T09:02:52;28.70;;;11.20;;
77016;SDS011;65949;53.132;17.930;2023-11-19T09:05:19;28.50;;;11.30;;
77016;SDS011;65949;53.132;17.930;2023-11-19T09:07:46;36.70;;;13.90;;
77016;SDS011;65949;53.132;17.930;2023-11-19T09:10:12;31.50;;;11.70;;
77016;SDS011;65949;53.132;17.930;2023-11-19T09:12:39;35.80;;;13.60;;
77016;SDS011;65949;53.132;17.930;2023-11-19T09:15:05;29.70;;;12.30;;
77016;SDS011;65949;53.132;17.930;2023-11-19T09:17:33;30.50;;;13.30;;
77016;SDS011;65949;53.132;17.930;2023-11-19T09:19:59;28.00;;;12.40;;
77016;SDS011;65949;53.132;17.930;2023-11-19T09:22:26;30.40;;;13.90;;
77016;SDS011;65949;53.132;17.930;2023-11-19T09:24:53;26.80;;;11.30;;
77016;SDS011;65949;53.132;17.930;2023-11-19T09:27:20;28.90;;;11.50;;
77016;SDS011;65949;53.132;17.930;2023-11-19T09:29:47;33.90;;;13.80;;
77016;SDS011;65949;53.132;17.930;2023-11-19T09:32:15;32.60;;;12.20;;
77016;SDS011;65949;53.132;17.930;2023-11-19T09:34:41;39.50;;;14.90;;
77016;SDS011;65949;53.132;17.930;2023-11-19T09:37:08;34.40;;;14.30;;
77016;SDS011;65949;53.132;17.930;2023-11-19T09:39:35;29.50;;;12.70;;
77016;SDS011;65949;53.132;17.930;2023-11-19T09:42:01;39.80;;;15.70;;
77016;SDS011;65949;53.132;17.930;2023-11-19T09:44:28;32.70;;;13.40;;
77016;SDS011;65949;53.132;17.930;2023-11-19T09:46:55;29.90;;;12.40;;
77016;SDS011;65949;53.132;17.930;2023-11-19T09:49:24;31.50;;;11.20;;
77016;SDS011;65949;53.132;17.930;2023-11-19T09:51:52;25.20;;;10.80;;
77016;SDS011;65949;53.132;17.930;2023-11-19T09:54:20;39.50;;;14.30;;
77016;SDS011;65949;53.132;17.930;2023-11-19T09:56:46;32.00;;;12.90;;
77016;SDS011;65949;53.132;17.930;2023-11-19T09:59:14;34.90;;;11.80;;
77016;SDS011;65949;53.132;17.930;2023-11-19T10:01:41;32.80;;;14.80;;
77016;SDS011;65949;53.132;17.930;2023-11-19T10:04:09;43.20;;;15.20;;
77016;SDS011;65949;53.132;17.930;2023-11-19T10:06:41;34.40;;;13.40;;
77016;SDS011;65949;53.132;17.930;2023-11-19T10:09:08;37.20;;;14.30;;
77016;SDS011;65949;53.132;17.930;2023-11-19T10:11:35;37.90;;;14.90;;
77016;SDS011;65949;53.132;17.930;2023-11-19T10:14:02;38.10;;;14.90;;
77016;SDS011;65949;53.132;17.930;2023-11-19T10:16:29;40.80;;;15.20;;
77016;SDS011;65949;53.132;17.930;2023-11-19T10:18:57;39.20;;;15.30;;
77016;SDS011;65949;53.132;17.930;2023-11-19T10:21:24;42.30;;;16.60;;
77016;SDS011;65949;53.132;17.930;2023-11-19T10:23:51;30.80;;;12.60;;
77016;SDS011;65949;53.132;17.930;2023-11-19T10:26:20;38.40;;;15.10;;
77016;SDS011;65949;53.132;17.930;2023-11-19T10:28:47;32.10;;;13.60;;
77016;SDS011;65949;53.132;17.930;2023-11-19T10:31:17;33.20;;;13.40;;
77016;SDS011;65949;53.132;17.930;2023-11-19T10:33:45;37.30;;;15.80;;
77016;SDS011;65949;53.132;17.930;2023-11-19T10:36:14;38.90;;;15.50;;
77016;SDS011;65949;53.132;17.930;2023-11-19T10:38:41;31.80;;;13.40;;
77016;SDS011;65949;53.132;17.930;2023-11-19T10:41:31;31.90;;;13.80;;
77016;SDS011;65949;53.132;17.930;2023-11-19T10:43:59;32.60;;;14.40;;
77016;SDS011;65949;53.132;17.930;2023-11-19T10:49:22;32.10;;;13.90;;
77016;SDS011;65949;53.132;17.930;2023-11-19T10:51:48;32.20;;;12.70;;
77016;SDS011;65949;53.132;17.930;2023-11-19T10:54:18;32.30;;;14.60;;
77016;SDS011;65949;53.132;17.930;2023-11-19T10:56:46;27.90;;;11.50;;
77016;SDS011;65949;53.132;17.930;2023-11-19T10:59:20;30.60;;;12.80;;
77016;SDS011;65949;53.132;17.930;2023-11-19T11:01:48;31.90;;;13.20;;
77016;SDS011;65949;53.132;17.930;2023-11-19T11:04:25;32.70;;;13.00;;
77016;SDS011;65949;53.132;17.930;2023-11-19T11:06:54;42.90;;;15.40;;
77016;SDS011;65949;53.132;17.930;2023-11-19T11:09:27;55.50;;;19.30;;
77016;SDS011;65949;53.132;17.930;2023-11-19T11:11:54;57.40;;;22.30;;
77016;SDS011;65949;53.132;17.930;2023-11-19T11:14:23;56.70;;;23.80;;
77016;SDS011;65949;53.132;17.930;2023-11-19T11:16:51;53.30;;;22.00;;
77016;SDS011;65949;53.132;17.930;2023-11-19T11:19:19;43.40;;;19.50;;
77016;SDS011;65949;53.132;17.930;2023-11-19T11:21:47;54.80;;;21.00;;
77016;SDS011;65949;53.132;17.930;2023-11-19T11:32:36;48.30;;;20.00;;
77016;SDS011;65949;53.132;17.930;2023-11-19T11:38:21;60.90;;;28.50;;
77016;SDS011;65949;53.132;17.930;2023-11-19T11:43:49;47.90;;;20.60;;
77016;SDS011;65949;53.132;17.930;2023-11-19T11:49:05;51.60;;;20.80;;
77016;SDS011;65949;53.132;17.930;2023-11-19T11:51:57;45.90;;;17.60;;
77016;SDS011;65949;53.132;17.930;2023-11-19T11:54:26;40.90;;;17.20;;
77016;SDS011;65949;53.132;17.930;2023-11-19T11:57:07;46.50;;;19.80;;
77016;SDS011;65949;53.132;17.930;2023-11-19T12:02:09;42.90;;;17.30;;
77016;SDS011;65949;53.132;17.930;2023-11-19T12:04:39;45.40;;;18.30;;
77016;SDS011;65949;53.132;17.930;2023-11-19T12:07:06;46.70;;;18.70;;
77016;SDS011;65949;53.132;17.930;2023-11-19T12:09:39;39.30;;;15.50;;
77016;SDS011;65949;53.132;17.930;2023-11-19T12:12:11;43.00;;;18.00;;
77016;SDS011;65949;53.132;17.930;2023-11-19T12:22:38;44.40;;;17.40;;
77016;SDS011;65949;53.132;17.930;2023-11-19T12:25:05;38.70;;;14.90;;
77016;SDS011;65949;53.132;17.930;2023-11-19T12:27:41;50.40;;;20.80;;
77016;SDS011;65949;53.132;17.930;2023-11-19T12:30:10;39.00;;;16.20;;
77016;SDS011;65949;53.132;17.930;2023-11-19T12:32:37;41.40;;;17.60;;
77016;SDS011;65949;53.132;17.930;2023-11-19T12:35:05;43.70;;;18.40;;
77016;SDS011;65949;53.132;17.930;2023-11-19T12:37:33;40.10;;;16.40;;
77016;SDS011;65949;53.132;17.930;2023-11-19T12:39:59;37.10;;;14.70;;
77016;SDS011;65949;53.132;17.930;2023-11-19T12:42:35;35.30;;;13.90;;
77016;SDS011;65949;53.132;17.930;2023-11-19T12:45:04;34.10;;;14.30;;
77016;SDS011;65949;53.132;17.930;2023-11-19T12:47:31;33.30;;;13.30;;
77016;SDS011;65949;53.132;17.930;2023-11-19T12:49:58;34.30;;;13.60;;
77016;SDS011;65949;53.132;17.930;2023-11-19T12:52:25;35.90;;;12.80;;
77016;SDS011;65949;53.132;17.930;2023-11-19T12:54:51;37.40;;;14.30;;
77016;SDS011;65949;53.132;17.930;2023-11-19T12:57:18;40.60;;;14.30;;
77016;SDS011;65949;53.132;17.930;2023-11-19T12:59:55;39.30;;;14.90;;
77016;SDS011;65949;53.132;17.930;2023-11-19T13:02:23;41.30;;;15.50;;
77016;SDS011;65949;53.132;17.930;2023-11-19T13:05:28;40.30;;;14.90;;
77016;SDS011;65949;53.132;17.930;2023-11-19T13:10:32;37.30;;;15.10;;
77016;SDS011;65949;53.132;17.930;2023-11-19T13:13:03;40.90;;;15.10;;
77016;SDS011;65949;53.132;17.930;2023-11-19T13:15:32;39.90;;;15.00;;
77016;SDS011;65949;53.132;17.930;2023-11-19T13:17:59;42.10;;;14.70;;
77016;SDS011;65949;53.132;17.930;2023-11-19T13:20:27;39.40;;;15.80;;
77016;SDS011;65949;53.132;17.930;2023-11-19T13:23:00;39.40;;;14.50;;
77016;SDS011;65949;53.132;17.930;2023-11-19T13:25:30;34.70;;;14.50;;
77016;SDS011;65949;53.132;17.930;2023-11-19T13:27:58;41.10;;;15.30;;
77016;SDS011;65949;53.132;17.930;2023-11-19T13:30:25;38.80;;;16.00;;
77016;SDS011;65949;53.132;17.930;2023-11-19T13:32:53;44.80;;;17.20;;
77016;SDS011;65949;53.132;17.930;2023-11-19T13:35:21;50.30;;;18.50;;
77016;SDS011;65949;53.132;17.930;2023-11-19T13:37:51;46.00;;;17.50;;
77016;SDS011;65949;53.132;17.930;2023-11-19T13:40:18;48.70;;;17.80;;
77016;SDS011;65949;53.132;17.930;2023-11-19T13:42:45;62.10;;;21.50;;
77016;SDS011;65949;53.132;17.930;2023-11-19T13:45:12;48.00;;;18.10;;
77016;SDS011;65949;53.132;17.930;2023-11-19T13:47:41;40.20;;;15.70;;
77016;SDS011;65949;53.132;17.930;2023-11-19T13:50:09;50.00;;;21.10;;
77016;SDS011;65949;53.132;17.930;2023-11-19T13:52:37;54.30;;;23.30;;
77016;SDS011;65949;53.132;17.930;2023-11-19T13:55:06;46.70;;;18.40;;
77016;SDS011;65949;53.132;17.930;2023-11-19T13:57:35;47.50;;;17.90;;
77016;SDS011;65949;53.132;17.930;2023-11-19T14:00:02;56.00;;;20.60;;
77016;SDS011;65949;53.132;17.930;2023-11-19T14:02:37;46.70;;;17.60;;
77016;SDS011;65949;53.132;17.930;2023-11-19T14:05:03;63.30;;;27.90;;
77016;SDS011;65949;53.132;17.930;2023-11-19T14:07:30;52.60;;;19.30;;
77016;SDS011;65949;53.132;17.930;2023-11-19T14:09:57;46.50;;;17.40;;
77016;SDS011;65949;53.132;17.930;2023-11-19T14:12:23;44.00;;;15.80;;
77016;SDS011;65949;53.132;17.930;2023-11-19T14:14:50;45.90;;;17.50;;
77016;SDS011;65949;53.132;17.930;2023-11-19T14:17:17;42.50;;;15.70;;
77016;SDS011;65949;53.132;17.930;2023-11-19T14:19:45;40.70;;;15.30;;
77016;SDS011;65949;53.132;17.930;2023-11-19T14:22:12;38.30;;;14.50;;
77016;SDS011;65949;53.132;17.930;2023-11-19T14:24:39;42.80;;;18.10;;
77016;SDS011;65949;53.132;17.930;2023-11-19T14:27:10;41.10;;;16.30;;
77016;SDS011;65949;53.132;17.930;2023-11-19T14:29:37;40.70;;;16.10;;
77016;SDS011;65949;53.132;17.930;2023-11-19T14:32:04;37.40;;;14.60;;
77016;SDS011;65949;53.132;17.930;2023-11-19T14:34:31;52.10;;;20.40;;
77016;SDS011;65949;53.132;17.930;2023-11-19T14:36:58;54.30;;;18.50;;
77016;SDS011;65949;53.132;17.930;2023-11-19T14:39:25;57.00;;;18.60;;
77016;SDS011;65949;53.132;17.930;2023-11-19T14:41:52;43.60;;;15.20;;
77016;SDS011;65949;53.132;17.930;2023-11-19T14:44:20;40.70;;;16.40;;
77016;SDS011;65949;53.132;17.930;2023-11-19T14:46:47;45.60;;;17.50;;
77016;SDS011;65949;53.132;17.930;2023-11-19T14:49:13;56.30;;;20.70;;
77016;SDS011;65949;53.132;17.930;2023-11-19T14:51:40;64.00;;;24.10;;